createdAt,value
2022-09-01T00:01:38.495Z,13.14
2022-09-01T00:04:06.232Z,13.12
2022-09-01T00:06:33.629Z,13.08
2022-09-01T00:09:01.992Z,13.11
2022-09-01T00:11:29.859Z,13.10
2022-09-01T00:13:57.424Z,13.09
2022-09-01T00:16:24.291Z,13.09
2022-09-01T00:18:52.723Z,13.07
2022-09-01T00:21:21.450Z,13.07
2022-09-01T00:23:48.305Z,13.07
2022-09-01T00:26:15.323Z,13.03
2022-09-01T00:28:42.456Z,13.05
2022-09-01T00:31:09.957Z,13.00
2022-09-01T00:33:37.355Z,12.92
2022-09-01T00:36:05.189Z,12.87
2022-09-01T00:38:32.752Z,12.81
2022-09-01T00:41:00.104Z,12.75
2022-09-01T00:43:41.583Z,12.69
2022-09-01T00:46:10.301Z,12.65
2022-09-01T00:48:37.762Z,12.66
2022-09-01T00:51:05.573Z,12.61
2022-09-01T00:53:32.843Z,12.57
2022-09-01T00:55:59.935Z,12.57
2022-09-01T00:58:27.173Z,12.57
2022-09-01T01:00:54.146Z,12.56
2022-09-01T01:03:21.395Z,12.58
2022-09-01T01:05:51.188Z,12.59
2022-09-01T01:08:18.147Z,12.55
2022-09-01T01:10:45.201Z,12.54
2022-09-01T01:13:14.506Z,12.44
2022-09-01T01:15:41.715Z,12.45
2022-09-01T01:18:08.619Z,12.43
2022-09-01T01:20:35.469Z,12.43
2022-09-01T01:23:21.332Z,12.41
2022-09-01T01:25:56.428Z,12.42
2022-09-01T01:28:23.649Z,12.43
2022-09-01T01:30:56.188Z,12.42
2022-09-01T01:33:25.287Z,12.39
2022-09-01T01:35:53.402Z,12.38
2022-09-01T01:38:20.893Z,12.34
2022-09-01T01:40:50.755Z,12.28
2022-09-01T01:43:17.936Z,12.28
2022-09-01T01:45:44.830Z,12.29
2022-09-01T01:48:11.798Z,12.28
2022-09-01T01:50:39.571Z,12.22
2022-09-01T01:53:11.128Z,12.25
2022-09-01T01:55:40.014Z,12.24
2022-09-01T01:58:06.881Z,12.16
2022-09-01T02:00:34.531Z,12.14
2022-09-01T02:03:02.208Z,12.10
2022-09-01T02:05:30.996Z,12.07
2022-09-01T02:08:00.215Z,12.04
2022-09-01T02:10:30.229Z,12.02
2022-09-01T02:12:57.601Z,12.00
2022-09-01T02:15:24.461Z,11.95
2022-09-01T02:17:51.333Z,11.91
2022-09-01T02:20:18.251Z,11.88
2022-09-01T02:22:45.149Z,11.90
2022-09-01T02:25:12.472Z,11.93
2022-09-01T02:27:39.353Z,11.92
2022-09-01T02:30:07.294Z,11.89
2022-09-01T02:32:37.705Z,11.84
2022-09-01T02:35:06.144Z,11.84
2022-09-01T02:37:33.716Z,11.86
2022-09-01T02:40:00.578Z,11.84
2022-09-01T02:42:27.454Z,11.85
2022-09-01T02:44:54.916Z,11.92
2022-09-01T02:47:22.539Z,12.02
2022-09-01T02:49:50.149Z,12.11
2022-09-01T02:52:17.133Z,12.16
2022-09-01T02:54:44.222Z,12.21
2022-09-01T02:57:12.105Z,12.22
2022-09-01T02:59:43.627Z,12.21
2022-09-01T03:02:11.032Z,12.20
2022-09-01T03:04:37.960Z,12.18
2022-09-01T03:07:05.951Z,12.15
2022-09-01T03:09:32.847Z,12.13
2022-09-01T03:11:59.706Z,12.08
2022-09-01T03:14:26.517Z,11.94
2022-09-01T03:16:54.227Z,11.90
2022-09-01T03:19:21.157Z,11.89
2022-09-01T03:21:48.052Z,11.92
2022-09-01T03:24:18.761Z,11.92
2022-09-01T03:26:49.782Z,11.90
2022-09-01T03:29:17.849Z,11.84
2022-09-01T03:31:45.345Z,11.79
2022-09-01T03:34:12.484Z,11.83
2022-09-01T03:36:45.438Z,11.82
2022-09-01T03:39:16.524Z,11.82
2022-09-01T03:41:44.244Z,11.78
2022-09-01T03:44:12.099Z,11.75
2022-09-01T03:46:39.009Z,11.73
2022-09-01T03:49:06.247Z,11.75
2022-09-01T03:51:34.225Z,11.75
2022-09-01T03:54:01.755Z,11.74
2022-09-01T03:56:28.891Z,11.69
2022-09-01T03:58:57.206Z,11.63
2022-09-01T04:01:26.152Z,11.62
2022-09-01T04:03:53.331Z,11.61
2022-09-01T04:06:24.616Z,11.60
2022-09-01T04:08:52.301Z,11.59
2022-09-01T04:11:19.847Z,11.54
2022-09-01T04:13:48.345Z,11.61
2022-09-01T04:16:25.799Z,11.63
2022-09-01T04:18:52.735Z,11.63
2022-09-01T04:21:19.650Z,11.61
2022-09-01T04:23:46.528Z,11.59
2022-09-01T04:26:13.897Z,11.57
2022-09-01T04:28:43.129Z,11.54
2022-09-01T04:31:11.528Z,11.52
2022-09-01T04:33:38.482Z,11.50
2022-09-01T04:36:13.436Z,11.49
2022-09-01T04:38:40.337Z,11.50
2022-09-01T04:41:07.467Z,11.51
2022-09-01T04:43:34.554Z,11.55
2022-09-01T04:46:02.266Z,11.58
2022-09-01T04:48:29.651Z,11.62
2022-09-01T04:50:56.717Z,11.68
2022-09-01T04:53:28.748Z,11.74
2022-09-01T04:55:56.243Z,11.77
2022-09-01T04:58:25.438Z,11.81
2022-09-01T05:00:52.811Z,11.84
2022-09-01T05:03:20.519Z,11.85
2022-09-01T05:05:54.230Z,11.85
2022-09-01T05:08:22.123Z,11.95
2022-09-01T05:10:53.147Z,12.01
2022-09-01T05:13:30.797Z,12.08
2022-09-01T05:16:05.938Z,12.16
2022-09-01T05:18:33.100Z,12.26
2022-09-01T05:21:05.132Z,12.44
2022-09-01T05:23:31.980Z,12.59
2022-09-01T05:25:59.999Z,12.73
2022-09-01T05:28:26.999Z,12.91
2022-09-01T05:30:53.840Z,12.97
2022-09-01T05:33:21.907Z,13.01
2022-09-01T05:35:57.529Z,13.23
2022-09-01T05:38:24.444Z,13.33
2022-09-01T05:40:58.900Z,13.39
2022-09-01T05:43:26.318Z,13.42
2022-09-01T05:46:06.195Z,13.58
2022-09-01T05:48:35.123Z,13.61
2022-09-01T05:51:05.067Z,13.85
2022-09-01T05:53:33.562Z,13.99
2022-09-01T05:56:01.448Z,14.17
2022-09-01T05:59:22.558Z,14.25
2022-09-01T06:01:18.702Z,14.36
2022-09-01T06:03:45.932Z,14.16
2022-09-01T06:06:17.259Z,14.01
2022-09-01T06:08:46.713Z,14.14
2022-09-01T06:11:13.871Z,14.38
2022-09-01T06:13:41.081Z,14.67
2022-09-01T06:16:08.941Z,14.94
2022-09-01T06:18:36.582Z,15.22
2022-09-01T06:21:04.456Z,15.26
2022-09-01T06:23:31.400Z,15.24
2022-09-01T06:25:58.281Z,15.57
2022-09-01T06:28:25.519Z,15.63
2022-09-01T06:30:53.462Z,15.62
2022-09-01T06:33:20.375Z,15.68
2022-09-01T06:35:48.143Z,15.83
2022-09-01T06:38:18.652Z,15.91
2022-09-01T06:40:48.557Z,16.04
2022-09-01T06:43:19.558Z,16.18
2022-09-01T06:45:48.551Z,16.28
2022-09-01T06:48:15.557Z,16.47
2022-09-01T06:53:32.526Z,16.76
2022-09-01T06:56:00.280Z,16.92
2022-09-01T06:58:28.143Z,17.08
2022-09-01T07:00:55.092Z,17.25
2022-09-01T07:03:22.259Z,17.22
2022-09-01T07:06:09.811Z,17.23
2022-09-01T07:14:32.926Z,17.85
2022-09-01T07:19:48.867Z,17.93
2022-09-01T07:25:12.087Z,18.00
2022-09-01T07:27:50.192Z,18.13
2022-09-01T07:30:18.700Z,18.37
2022-09-01T07:32:48.981Z,18.36
2022-09-01T07:35:19.058Z,18.47
2022-09-01T07:43:41.505Z,18.83
2022-09-01T07:51:52.716Z,19.47
2022-09-01T07:54:21.083Z,19.61
2022-09-01T07:56:48.725Z,19.56
2022-09-01T07:59:16.086Z,19.49
2022-09-01T08:02:08.799Z,19.63
2022-09-01T08:04:36.056Z,19.91
2022-09-01T08:07:04.391Z,19.99
2022-09-01T08:09:37.423Z,20.10
2022-09-01T08:12:07.693Z,20.10
2022-09-01T08:14:41.091Z,20.46
2022-09-01T08:17:50.299Z,20.38
2022-09-01T08:20:14.389Z,20.50
2022-09-01T08:23:07.731Z,20.48
2022-09-01T08:25:37.035Z,20.28
2022-09-01T08:28:05.355Z,20.74
2022-09-01T08:30:34.265Z,20.81
2022-09-01T08:33:10.112Z,20.73
2022-09-01T08:35:41.096Z,21.00
2022-09-01T08:38:08.536Z,21.13
2022-09-01T08:40:36.669Z,20.85
2022-09-01T08:43:22.202Z,20.74
2022-09-01T08:45:51.019Z,21.18
2022-09-01T08:51:27.291Z,21.13
2022-09-01T08:54:01.142Z,21.35
2022-09-01T08:56:28.423Z,21.51
2022-09-01T08:58:56.524Z,21.66
2022-09-01T09:01:44.469Z,21.81
2022-09-01T09:04:30.266Z,21.90
2022-09-01T09:06:59.908Z,21.60
2022-09-01T09:09:34.637Z,21.72
2022-09-01T09:12:04.514Z,22.03
2022-09-01T09:14:49.939Z,21.68
2022-09-01T09:17:19.415Z,21.96
2022-09-01T09:19:46.264Z,22.35
2022-09-01T09:22:14.433Z,22.69
2022-09-01T09:24:44.275Z,22.59
2022-09-01T09:27:16.401Z,22.91
2022-09-01T09:29:45.463Z,23.09
2022-09-01T09:35:16.717Z,23.46
2022-09-01T09:37:44.760Z,23.89
2022-09-01T09:40:29.902Z,23.76
2022-09-01T09:42:56.788Z,23.77
2022-09-01T09:45:28.556Z,24.24
2022-09-01T09:47:56.979Z,24.20
2022-09-01T09:50:41.045Z,24.23
2022-09-01T09:53:11.778Z,24.24
2022-09-01T09:55:53.992Z,24.43
2022-09-01T09:58:25.294Z,24.64
2022-09-01T10:01:06.969Z,25.04
2022-09-01T10:03:35.593Z,25.10
2022-09-01T10:06:02.469Z,25.15
2022-09-01T10:08:29.994Z,25.14
2022-09-01T10:10:58.772Z,25.27
2022-09-01T10:13:28.294Z,24.88
2022-09-01T10:15:56.848Z,24.60
2022-09-01T10:18:29.409Z,24.79
2022-09-01T10:20:58.545Z,24.55
2022-09-01T10:23:27.385Z,24.82
2022-09-01T10:26:02.265Z,24.87
2022-09-01T10:28:33.894Z,25.13
2022-09-01T10:31:01.095Z,24.95
2022-09-01T10:33:27.978Z,25.01
2022-09-01T10:35:55.138Z,24.82
2022-09-01T10:38:25.082Z,24.80
2022-09-01T10:40:53.235Z,24.39
2022-09-01T10:43:23.198Z,24.45
2022-09-01T10:45:57.486Z,24.07
2022-09-01T10:48:31.949Z,24.25
2022-09-01T10:51:18.817Z,24.19
2022-09-01T10:53:46.976Z,24.38
2022-09-01T10:56:28.330Z,24.32
2022-09-01T10:59:41.810Z,24.25
2022-09-01T11:02:24.971Z,24.27
2022-09-01T11:04:59.643Z,24.23
2022-09-01T11:07:50.485Z,24.26
2022-09-01T11:10:36.965Z,24.36
2022-09-01T11:13:03.793Z,24.42
2022-09-01T11:15:31.278Z,24.52
2022-09-01T11:17:58.541Z,24.60
2022-09-01T11:20:31.215Z,24.51
2022-09-01T11:22:59.847Z,24.73
2022-09-01T11:25:39.953Z,24.59
2022-09-01T11:28:30.242Z,24.00
2022-09-01T11:30:57.061Z,23.44
2022-09-01T11:33:39.490Z,23.30
2022-09-01T11:36:12.154Z,23.44
2022-09-01T11:38:54.128Z,23.45
2022-09-01T11:41:27.009Z,23.58
2022-09-01T11:43:57.298Z,23.57
2022-09-01T11:46:29.262Z,23.70
2022-09-01T11:48:57.523Z,23.89
2022-09-01T11:51:24.739Z,24.40
2022-09-01T11:53:51.982Z,24.95
2022-09-01T11:56:24.264Z,25.46
2022-09-01T11:58:51.211Z,25.66
2022-09-01T12:01:18.024Z,26.12
2022-09-01T12:03:45.850Z,26.41
2022-09-01T12:06:18.223Z,26.34
2022-09-01T12:08:51.425Z,26.07
2022-09-01T12:11:26.049Z,26.11
2022-09-01T12:13:57.926Z,25.91
2022-09-01T12:16:25.003Z,25.21
2022-09-01T12:18:53.281Z,24.67
2022-09-01T12:21:25.900Z,24.43
2022-09-01T12:23:53.277Z,24.68
2022-09-01T12:26:23.644Z,24.57
2022-09-01T12:28:50.737Z,23.80
2022-09-01T12:31:19.673Z,23.96
2022-09-01T12:33:47.189Z,24.13
2022-09-01T12:36:22.731Z,24.41
2022-09-01T12:38:49.916Z,24.45
2022-09-01T12:41:45.842Z,24.61
2022-09-01T12:44:31.264Z,24.32
2022-09-01T12:47:06.092Z,24.53
2022-09-01T12:49:50.740Z,24.74
2022-09-01T12:52:20.009Z,24.98
2022-09-01T12:54:48.304Z,25.07
2022-09-01T12:57:44.805Z,25.06
2022-09-01T13:00:11.847Z,25.27
2022-09-01T13:02:41.133Z,25.34
2022-09-01T13:05:20.024Z,25.17
2022-09-01T13:07:46.863Z,25.13
2022-09-01T13:10:14.018Z,25.28
2022-09-01T13:12:41.749Z,25.24
2022-09-01T13:15:09.539Z,25.07
2022-09-01T13:17:36.384Z,24.96
2022-09-01T13:20:03.939Z,24.86
2022-09-01T13:22:30.792Z,25.03
2022-09-01T13:24:57.727Z,25.17
2022-09-01T13:27:24.589Z,25.19
2022-09-01T13:29:51.614Z,25.22
2022-09-01T13:32:20.956Z,25.01
2022-09-01T13:34:50.693Z,24.63
2022-09-01T13:37:20.430Z,24.62
2022-09-01T13:39:47.338Z,24.62
2022-09-01T13:42:14.895Z,24.80
2022-09-01T13:44:44.198Z,24.96
2022-09-01T13:50:09.252Z,25.42
2022-09-01T13:52:38.764Z,25.50
2022-09-01T13:55:06.394Z,25.58
2022-09-01T13:57:36.097Z,25.69
2022-09-01T14:00:08.622Z,25.55
2022-09-01T14:02:38.408Z,25.63
2022-09-01T14:05:05.381Z,25.65
2022-09-01T14:07:32.352Z,25.69
2022-09-01T14:09:59.227Z,25.65
2022-09-01T14:12:26.158Z,25.80
2022-09-01T14:17:41.240Z,25.70
2022-09-01T14:20:10.329Z,25.78
2022-09-01T14:22:38.594Z,25.81
2022-09-01T14:25:06.517Z,25.87
2022-09-01T14:27:33.348Z,26.28
2022-09-01T14:30:00.225Z,26.42
2022-09-01T14:32:28.065Z,26.44
2022-09-01T14:34:55.557Z,26.32
2022-09-01T14:37:22.440Z,26.32
2022-09-01T14:39:50.152Z,26.28
2022-09-01T14:42:17.427Z,26.23
2022-09-01T14:44:44.272Z,26.29
2022-09-01T14:47:12.242Z,26.23
2022-09-01T14:49:45.084Z,26.55
2022-09-01T14:52:12.492Z,26.52
2022-09-01T14:54:41.144Z,26.59
2022-09-01T14:59:54.990Z,26.49
2022-09-01T15:02:21.864Z,26.28
2022-09-01T15:04:48.803Z,26.33
2022-09-01T15:07:15.739Z,26.27
2022-09-01T15:09:42.741Z,26.52
2022-09-01T15:12:09.734Z,26.85
2022-09-01T15:14:36.940Z,27.43
2022-09-01T15:17:04.304Z,27.58
2022-09-01T15:19:32.211Z,27.90
2022-09-01T15:21:59.056Z,28.42
2022-09-01T15:24:25.959Z,28.55
2022-09-01T15:26:52.993Z,28.88
2022-09-01T15:29:19.835Z,29.26
2022-09-01T15:31:46.727Z,29.45
2022-09-01T15:34:13.636Z,29.75
2022-09-01T15:36:41.161Z,29.08
2022-09-01T15:39:08.919Z,28.65
2022-09-01T15:41:35.969Z,28.91
2022-09-01T15:44:06.976Z,28.34
2022-09-01T15:46:34.675Z,27.97
2022-09-01T15:49:02.577Z,27.47
2022-09-01T15:51:34.325Z,26.35
2022-09-01T15:54:03.833Z,25.57
2022-09-01T15:56:31.166Z,25.27
2022-09-01T15:59:02.271Z,24.78
2022-09-01T16:01:30.920Z,24.90
2022-09-01T16:03:57.811Z,25.02
2022-09-01T16:06:25.007Z,24.72
2022-09-01T16:08:52.131Z,24.68
2022-09-01T16:11:18.954Z,24.47
2022-09-01T16:13:45.829Z,24.58
2022-09-01T16:16:18.890Z,24.57
2022-09-01T16:19:04.733Z,24.58
2022-09-01T16:21:34.376Z,24.54
2022-09-01T16:24:07.269Z,24.45
2022-09-01T16:26:35.390Z,24.27
2022-09-01T16:29:03.768Z,24.26
2022-09-01T16:31:32.055Z,24.18
2022-09-01T16:34:00.301Z,23.88
2022-09-01T16:36:45.915Z,23.67
2022-09-01T16:39:26.333Z,23.66
2022-09-01T16:41:59.175Z,23.61
2022-09-01T16:44:38.988Z,23.39
2022-09-01T16:47:14.846Z,23.38
2022-09-01T16:49:49.423Z,23.50
2022-09-01T16:52:23.564Z,23.53
2022-09-01T16:55:09.322Z,23.44
2022-09-01T16:57:52.694Z,23.40
2022-09-01T17:00:22.813Z,23.31
2022-09-01T17:02:52.743Z,23.17
2022-09-01T17:05:19.591Z,22.88
2022-09-01T17:07:48.826Z,22.81
2022-09-01T17:10:24.857Z,22.82
2022-09-01T17:12:53.003Z,22.74
2022-09-01T17:15:26.079Z,22.75
2022-09-01T17:18:22.363Z,22.69
2022-09-01T17:20:58.408Z,22.54
2022-09-01T17:23:31.108Z,22.44
2022-09-01T17:25:59.726Z,22.32
2022-09-01T17:28:29.814Z,22.18
2022-09-01T17:31:10.461Z,22.08
2022-09-01T17:33:37.346Z,21.94
2022-09-01T17:36:07.140Z,21.95
2022-09-01T17:38:54.328Z,21.91
2022-09-01T17:41:36.261Z,21.72
2022-09-01T17:44:13.467Z,21.49
2022-09-01T17:46:45.179Z,21.27
2022-09-01T17:49:20.989Z,21.05
2022-09-01T17:51:57.978Z,20.95
2022-09-01T17:54:27.668Z,20.72
2022-09-01T17:56:54.490Z,20.41
2022-09-01T17:59:21.284Z,20.32
2022-09-01T18:01:48.152Z,20.15
2022-09-01T18:04:17.841Z,20.02
2022-09-01T18:06:51.333Z,19.81
2022-09-01T18:09:20.551Z,19.82
2022-09-01T18:11:51.403Z,19.81
2022-09-01T18:14:21.352Z,19.68
2022-09-01T18:17:01.666Z,19.70
2022-09-01T18:19:45.505Z,19.63
2022-09-01T18:22:17.008Z,19.52
2022-09-01T18:24:49.347Z,19.41
2022-09-01T18:27:16.179Z,19.30
2022-09-01T18:29:45.644Z,19.10
2022-09-01T18:32:15.687Z,19.04
2022-09-01T18:34:48.447Z,18.90
2022-09-01T18:37:25.335Z,18.77
2022-09-01T18:39:52.166Z,18.75
2022-09-01T18:42:30.620Z,18.67
2022-09-01T18:45:29.844Z,18.59
2022-09-01T18:48:00.138Z,18.58
2022-09-01T18:50:37.459Z,18.48
2022-09-01T18:53:29.151Z,18.38
2022-09-01T18:56:16.419Z,18.26
2022-09-01T18:58:43.230Z,18.23
2022-09-01T19:01:13.212Z,18.13
2022-09-01T19:03:43.277Z,18.05
2022-09-01T19:06:22.221Z,17.96
2022-09-01T19:09:07.452Z,17.91
2022-09-01T19:11:49.309Z,17.80
2022-09-01T19:14:18.903Z,17.78
2022-09-01T19:16:55.624Z,17.72
2022-09-01T19:19:28.149Z,17.67
2022-09-01T19:21:55.063Z,17.63
2022-09-01T19:24:33.319Z,17.53
2022-09-01T19:27:03.153Z,17.52
2022-09-01T19:29:33.247Z,17.61
2022-09-01T19:32:02.053Z,17.64
2022-09-01T19:34:39.281Z,17.64
2022-09-01T19:37:08.791Z,17.64
2022-09-01T19:39:37.632Z,17.61
2022-09-01T19:42:26.627Z,17.56
2022-09-01T19:44:59.643Z,17.47
2022-09-01T19:47:44.938Z,17.44
2022-09-01T19:50:30.184Z,17.36
2022-09-01T19:52:57.099Z,17.33
2022-09-01T19:55:44.214Z,17.28
2022-09-01T19:58:18.370Z,17.14
2022-09-01T20:00:48.959Z,17.37
2022-09-01T20:03:24.680Z,17.53
2022-09-01T20:05:57.630Z,17.62
2022-09-01T20:08:33.680Z,17.59
2022-09-01T20:11:07.371Z,17.66
2022-09-01T20:13:43.249Z,17.65
2022-09-01T20:16:13.166Z,17.71
2022-09-01T20:18:46.356Z,17.80
2022-09-01T20:21:20.831Z,17.79
2022-09-01T20:23:48.123Z,17.83
2022-09-01T20:26:18.045Z,17.86
2022-09-01T20:28:57.544Z,17.91
2022-09-01T20:31:30.169Z,17.92
2022-09-01T20:33:57.007Z,17.91
2022-09-01T20:36:29.776Z,17.81
2022-09-01T20:39:08.796Z,17.75
2022-09-01T20:41:40.139Z,17.76
2022-09-01T20:44:09.459Z,17.68
2022-09-01T20:46:36.377Z,17.68
2022-09-01T20:49:03.276Z,17.70
2022-09-01T20:51:30.081Z,17.70
2022-09-01T20:54:14.003Z,17.64
2022-09-01T20:56:40.820Z,17.59
2022-09-01T20:59:28.782Z,17.57
2022-09-01T21:02:05.803Z,17.51
2022-09-01T21:04:40.397Z,17.46
2022-09-01T21:07:15.847Z,17.48
2022-09-01T21:10:01.610Z,17.46
2022-09-01T21:12:45.524Z,17.39
2022-09-01T21:15:31.954Z,17.35
2022-09-01T21:18:01.833Z,17.29
2022-09-01T21:20:28.726Z,17.32
2022-09-01T21:22:55.944Z,17.28
2022-09-01T21:25:22.855Z,17.24
2022-09-01T21:27:53.011Z,17.13
2022-09-01T21:30:20.077Z,17.10
2022-09-01T21:32:47.340Z,17.06
2022-09-01T21:35:16.197Z,17.01
2022-09-01T21:37:43.042Z,17.06
2022-09-01T21:40:10.773Z,17.00
2022-09-01T21:42:52.897Z,16.93
2022-09-01T21:45:20.161Z,16.85
2022-09-01T21:47:48.278Z,16.72
2022-09-01T21:50:16.085Z,16.73
2022-09-01T21:52:43.010Z,16.62
2022-09-01T21:55:09.961Z,16.65
2022-09-01T21:57:37.292Z,16.63
2022-09-01T22:00:08.241Z,16.56
2022-09-01T22:02:42.823Z,16.51
2022-09-01T22:05:10.261Z,16.45
2022-09-01T22:07:37.976Z,16.41
2022-09-01T22:10:05.604Z,16.37
2022-09-01T22:12:32.495Z,16.31
2022-09-01T22:14:59.310Z,16.19
2022-09-01T22:17:26.141Z,16.07
2022-09-01T22:19:53.040Z,15.98
2022-09-01T22:22:19.929Z,15.90
2022-09-01T22:24:46.749Z,15.82
2022-09-01T22:27:13.673Z,15.66
2022-09-01T22:29:40.528Z,15.53
2022-09-01T22:32:07.411Z,15.39
2022-09-01T22:34:34.733Z,15.27
2022-09-01T22:37:01.697Z,15.34
2022-09-01T22:39:28.555Z,15.31
2022-09-01T22:41:55.425Z,15.19
2022-09-01T22:44:22.405Z,15.16
2022-09-01T22:46:49.262Z,15.12
2022-09-01T22:49:16.160Z,15.04
2022-09-01T22:51:43.394Z,14.99
2022-09-01T22:54:11.033Z,14.85
2022-09-01T22:56:38.257Z,14.69
2022-09-01T22:59:07.470Z,14.82
2022-09-01T23:01:35.932Z,14.78
2022-09-01T23:04:03.889Z,14.70
2022-09-01T23:06:31.457Z,14.69
2022-09-01T23:09:00.119Z,14.87
2022-09-01T23:11:27.364Z,14.84
2022-09-01T23:13:54.635Z,14.85
2022-09-01T23:16:25.319Z,14.73
2022-09-01T23:18:53.337Z,14.52
2022-09-01T23:21:21.623Z,14.44
2022-09-01T23:23:48.763Z,14.42
2022-09-01T23:26:25.944Z,14.18
2022-09-01T23:28:52.834Z,14.14
2022-09-01T23:31:21.356Z,14.02
2022-09-01T23:33:48.296Z,14.03
2022-09-01T23:36:16.207Z,13.99
2022-09-01T23:38:43.031Z,13.95
2022-09-01T23:41:11.647Z,13.91
2022-09-01T23:43:39.157Z,13.93
2022-09-01T23:46:06.975Z,13.82
2022-09-01T23:48:34.486Z,13.73
2022-09-01T23:51:06.049Z,13.75
2022-09-01T23:53:33.740Z,13.68
2022-09-01T23:56:01.989Z,13.62
2022-09-01T23:58:29.215Z,13.55
